Wildwood, Georgia
Current Conditions -  °F | °C
As of 12:53 PM on Friday 21 Nov 2014 (Local Time) from KCHA Reporting Station
Few Clouds Few Clouds  
Wind Chill: 51°   Ceiling: Unl
Heat Index: 51°   Visibility: 10mi
Dew Point: 22°   Wind: 6mph
Humidity: 32%   Direction: 350°N
Pressure: 30.43"   Gusts: NA
Location:  34.96°N, 85.41°W
Report Text: KCHA 211753Z 35005KT 10SM FEW250 11/M06 A3043 RMK AO2 SLP307 T01061056 10106 21011 58010
Loading
Personal Weather Stations






























Interactive Weather Map New forecast layout! Learn more

10-Day Weather Forecast

Advertisements
Track Severe Weather on mobile